首页
METAR-TAF:

METAR-TAF

机场 :

Deline, 西北特區, 加拿大

纬度: 65-12N, 经度: 123-26W, 海拔: 176米

当前天气观测

该预报发布于43分钟前的19:00 UTC
风速8节,风向,在东转东北东南之间变化
温度 8°C
湿度 53%
气压 1007 hPa
能見度: 48.3公里
少量云层高于1500英尺
少量云层高于6000英尺
多云层高于7000英尺
多云层高于8000英尺
多云层高于9000英尺

METAR: CYWJ 011900Z 09008KT 070V140 30SM FEW015 FEW060 BKN070 BKN080 BKN090 08/M01 A2974 RMK SC1SC1AC4AC1AC1 SC TR SLP084

时间: 13:43 (19:43 UTC)

预报

该预报发布于2小时和5分钟前的17:38 UTC
预报有效从01日的 18点(UTC)到 01日的 23点(UTC)
风速8节,风向东南
能見度: 10公里
散云层高于8000英尺
多云层高于10000英尺
短暂存在
从 01日的 18点(UTC)到 01日的 23点(UTC)
能見度: 10公里
多云层高于6000英尺
阴天层高于8000英尺
小雨
成为
从 01日的 19点(UTC)到 01日的 21点(UTC)
风速10节,风向

TAF: CYWJ 011738Z 0118/0123 14008KT P6SM SCT080 BKN100 TEMPO 0118/0123 P6SM -RA BKN060 OVC080 BECMG 0119/0121 09010KT RMK NXT FCST WILL BE ISSUED AT 021415Z

超过4000个机场的气象观测和天气预报(METAR&TAF报告)。

可查询的气象台以黄色和红色小点在地图上表示。

将鼠标移到小点上方,可查看气象台名称。

然后点击查看天气观测和预报。

如需切换地图:点击带黑十字的绿色按钮放大地图;点击带横线的绿色按钮缩小地图;或者点击绿色箭头查看邻近地区的地图。


METAR-TAF: